WZZ8VB LHBP-LIMF
Flight info
| Callsign | WZZ8VB |
|---|---|
| Flight time | 1h 30m |
| Altitude | 38000 |
| Route | GILEP DCT ZOLKU DCT SUNIS DCT GRZ DCT VILAK DCT DETSA DCT BAKOR DCT NAXAV DCT RENTA DCT LUSIL DCT SRN DCT NELAB |
| Aircraft | A320/M-SDE1E2E3FGIJ1J4RWXY/LB1 |
Departure
| Time | 2026-05-04 18:33 |
|---|---|
| Airport | Budapest Liszt Ferenc International Airport (LHBP) |
Arrival
| Time | 2026-05-04 20:04 |
|---|---|
| Airport | Turin Airport (LIMF) |
| Time | Latitude | Longitude | Altitude | Speed | Heading |
|---|---|---|---|---|---|
| 2026-05-04 17:59 | 47.43561 | 19.26388 | 458 ft | 0 kts | 222° |
| 2026-05-04 18:24 | 47.43570 | 19.26400 | 457 ft | 4 kts | 223° |
| 2026-05-04 18:24 | 47.43587 | 19.26423 | 458 ft | 4 kts | 234° |
| 2026-05-04 18:25 | 47.43594 | 19.26455 | 458 ft | 4 kts | 286° |
| 2026-05-04 18:25 | 47.43582 | 19.26488 | 457 ft | 4 kts | 314° |
| 2026-05-04 18:25 | 47.43564 | 19.26514 | 454 ft | 1 kts | 312° |
| 2026-05-04 18:25 | 47.43563 | 19.26515 | 454 ft | 0 kts | 312° |
| 2026-05-04 18:28 | 47.43569 | 19.26505 | 455 ft | 3 kts | 313° |
| 2026-05-04 18:28 | 47.43588 | 19.26475 | 455 ft | 5 kts | 313° |
| 2026-05-04 18:29 | 47.43620 | 19.26423 | 458 ft | 8 kts | 312° |
| 2026-05-04 18:29 | 47.43668 | 19.26356 | 458 ft | 10 kts | 334° |
| 2026-05-04 18:29 | 47.43737 | 19.26399 | 457 ft | 12 kts | 42° |
| 2026-05-04 18:29 | 47.43812 | 19.26379 | 458 ft | 14 kts | 313° |
| 2026-05-04 18:30 | 47.43970 | 19.26226 | 459 ft | 13 kts | 27° |
| 2026-05-04 18:30 | 47.43993 | 19.26256 | 458 ft | 0 kts | 46° |
| 2026-05-04 18:31 | 47.43996 | 19.26261 | 459 ft | 3 kts | 46° |
| 2026-05-04 18:31 | 47.44035 | 19.26321 | 463 ft | 11 kts | 47° |
| 2026-05-04 18:31 | 47.44066 | 19.26400 | 466 ft | 6 kts | 71° |
| 2026-05-04 18:32 | 47.44070 | 19.26448 | 471 ft | 5 kts | 86° |
| 2026-05-04 18:32 | 47.44056 | 19.26518 | 469 ft | 9 kts | 135° |
| 2026-05-04 18:32 | 47.44015 | 19.26610 | 469 ft | 13 kts | 124° |
| 2026-05-04 18:32 | 47.43919 | 19.26766 | 471 ft | 43 kts | 133° |
| 2026-05-04 18:33 | 47.43548 | 19.27363 | 471 ft | 111 kts | 132° |
| 2026-05-04 18:33 | 47.42901 | 19.28410 | 460 ft | 163 kts | 133° |
| 2026-05-04 18:33 | 47.42141 | 19.29708 | 1046 ft | 167 kts | 123° |
| 2026-05-04 18:33 | 47.41581 | 19.31197 | 1798 ft | 167 kts | 124° |
| 2026-05-04 18:34 | 47.40969 | 19.32787 | 2165 ft | 188 kts | 124° |
| 2026-05-04 18:34 | 47.40278 | 19.34562 | 2527 ft | 212 kts | 123° |
| 2026-05-04 18:34 | 47.39506 | 19.36562 | 3059 ft | 233 kts | 123° |
| 2026-05-04 18:34 | 47.38692 | 19.38681 | 3904 ft | 240 kts | 124° |
| 2026-05-04 18:35 | 47.37525 | 19.40466 | 4499 ft | 254 kts | 155° |
| 2026-05-04 18:35 | 47.35772 | 19.40881 | 5343 ft | 259 kts | 191° |
| 2026-05-04 18:35 | 47.34182 | 19.39709 | 6223 ft | 266 kts | 222° |
| 2026-05-04 18:35 | 47.33046 | 19.37541 | 7106 ft | 272 kts | 244° |
| 2026-05-04 18:36 | 47.32586 | 19.34820 | 8015 ft | 278 kts | 263° |
| 2026-05-04 18:36 | 47.32428 | 19.31962 | 8966 ft | 281 kts | 264° |
| 2026-05-04 18:36 | 47.32289 | 19.29067 | 9882 ft | 285 kts | 264° |
| 2026-05-04 18:36 | 47.32151 | 19.26091 | 10451 ft | 302 kts | 264° |
| 2026-05-04 18:37 | 47.32002 | 19.22899 | 10838 ft | 321 kts | 265° |
| 2026-05-04 18:37 | 47.31845 | 19.19579 | 11520 ft | 328 kts | 265° |
| 2026-05-04 18:37 | 47.31681 | 19.16206 | 12285 ft | 332 kts | 265° |
| 2026-05-04 18:37 | 47.31511 | 19.12786 | 13075 ft | 337 kts | 265° |
| 2026-05-04 18:38 | 47.31337 | 19.09326 | 13844 ft | 341 kts | 265° |
| 2026-05-04 18:38 | 47.31161 | 19.05826 | 14528 ft | 344 kts | 265° |
| 2026-05-04 18:38 | 47.30981 | 19.02290 | 15202 ft | 348 kts | 265° |
| 2026-05-04 18:38 | 47.30799 | 18.98719 | 15867 ft | 351 kts | 265° |
| 2026-05-04 18:39 | 47.30613 | 18.95118 | 16572 ft | 354 kts | 265° |
| 2026-05-04 18:39 | 47.30424 | 18.91493 | 17275 ft | 356 kts | 265° |
| 2026-05-04 18:39 | 47.30235 | 18.87838 | 17859 ft | 360 kts | 265° |
| 2026-05-04 18:39 | 47.30044 | 18.84158 | 18057 ft | 360 kts | 265° |
| 2026-05-04 18:40 | 47.29850 | 18.80454 | 18482 ft | 365 kts | 265° |
| 2026-05-04 18:40 | 47.29654 | 18.76723 | 19123 ft | 366 kts | 265° |
| 2026-05-04 18:40 | 47.29454 | 18.72961 | 19737 ft | 369 kts | 265° |
| 2026-05-04 18:40 | 47.29251 | 18.69180 | 20368 ft | 372 kts | 265° |
| 2026-05-04 18:41 | 47.29045 | 18.65368 | 20940 ft | 375 kts | 265° |
| 2026-05-04 18:41 | 47.28835 | 18.61521 | 21477 ft | 379 kts | 265° |
| 2026-05-04 18:41 | 47.28623 | 18.57640 | 22028 ft | 381 kts | 265° |
| 2026-05-04 18:41 | 47.28409 | 18.53732 | 22581 ft | 384 kts | 265° |
| 2026-05-04 18:42 | 47.28191 | 18.49798 | 23164 ft | 387 kts | 265° |
| 2026-05-04 18:42 | 47.27968 | 18.45840 | 23718 ft | 389 kts | 265° |
| 2026-05-04 18:42 | 47.27742 | 18.41853 | 24173 ft | 392 kts | 265° |
| 2026-05-04 18:42 | 47.27514 | 18.37838 | 24629 ft | 395 kts | 265° |
| 2026-05-04 18:43 | 47.27284 | 18.33796 | 25078 ft | 397 kts | 266° |
| 2026-05-04 18:43 | 47.27054 | 18.29728 | 25520 ft | 400 kts | 266° |
| 2026-05-04 18:43 | 47.26820 | 18.25623 | 25960 ft | 403 kts | 266° |
| 2026-05-04 18:43 | 47.26581 | 18.21496 | 26390 ft | 406 kts | 266° |
| 2026-05-04 18:44 | 47.26338 | 18.17344 | 26827 ft | 409 kts | 266° |
| 2026-05-04 18:44 | 47.26175 | 18.14581 | 27111 ft | 411 kts | 266° |
| 2026-05-04 18:44 | 47.25850 | 18.09109 | 27654 ft | 414 kts | 266° |
| 2026-05-04 18:44 | 47.25607 | 18.05050 | 28063 ft | 417 kts | 266° |
| 2026-05-04 18:45 | 47.25352 | 18.00791 | 28491 ft | 419 kts | 266° |
| 2026-05-04 18:45 | 47.25097 | 17.96499 | 28915 ft | 422 kts | 266° |
| 2026-05-04 18:45 | 47.24837 | 17.92186 | 29336 ft | 425 kts | 266° |
| 2026-05-04 18:45 | 47.24573 | 17.87851 | 29754 ft | 427 kts | 266° |
| 2026-05-04 18:46 | 47.24305 | 17.83478 | 30167 ft | 430 kts | 266° |
| 2026-05-04 18:46 | 47.24035 | 17.79076 | 30507 ft | 433 kts | 266° |
| 2026-05-04 18:46 | 47.23760 | 17.74657 | 30873 ft | 435 kts | 266° |
| 2026-05-04 18:46 | 47.23481 | 17.70214 | 31227 ft | 437 kts | 266° |
| 2026-05-04 18:47 | 47.23200 | 17.65748 | 31581 ft | 440 kts | 266° |
| 2026-05-04 18:47 | 47.22916 | 17.61268 | 31996 ft | 440 kts | 266° |
| 2026-05-04 18:47 | 47.22632 | 17.56797 | 32545 ft | 438 kts | 266° |
| 2026-05-04 18:47 | 47.22346 | 17.52341 | 33107 ft | 436 kts | 266° |
| 2026-05-04 18:48 | 47.22061 | 17.47918 | 33663 ft | 433 kts | 266° |
| 2026-05-04 18:48 | 47.21775 | 17.43519 | 34200 ft | 431 kts | 266° |
| 2026-05-04 18:48 | 47.21490 | 17.39136 | 34654 ft | 430 kts | 266° |
| 2026-05-04 18:48 | 47.21204 | 17.34769 | 35090 ft | 429 kts | 266° |
| 2026-05-04 18:49 | 47.20914 | 17.30410 | 35506 ft | 428 kts | 266° |
| 2026-05-04 18:49 | 47.20625 | 17.26066 | 35916 ft | 427 kts | 266° |
| 2026-05-04 18:49 | 47.20336 | 17.21731 | 36315 ft | 426 kts | 266° |
| 2026-05-04 18:49 | 47.20048 | 17.17403 | 36702 ft | 425 kts | 265° |
| 2026-05-04 18:50 | 47.19759 | 17.13091 | 37120 ft | 423 kts | 265° |
| 2026-05-04 18:50 | 47.19468 | 17.08790 | 37534 ft | 421 kts | 265° |
| 2026-05-04 18:50 | 47.19176 | 17.04513 | 37903 ft | 421 kts | 265° |
| 2026-05-04 18:51 | 47.18583 | 16.95980 | 37991 ft | 418 kts | 265° |
| 2026-05-04 18:51 | 47.17996 | 16.87480 | 37982 ft | 418 kts | 265° |
| 2026-05-04 18:52 | 47.17399 | 16.78986 | 37988 ft | 418 kts | 265° |
| 2026-05-04 18:52 | 47.16817 | 16.70497 | 37992 ft | 417 kts | 265° |
| 2026-05-04 18:53 | 47.16289 | 16.62027 | 37991 ft | 416 kts | 265° |
| 2026-05-04 18:53 | 47.15763 | 16.53563 | 37993 ft | 416 kts | 265° |
| 2026-05-04 18:54 | 47.15221 | 16.45110 | 37995 ft | 416 kts | 265° |
| 2026-05-04 18:54 | 47.14667 | 16.36658 | 37997 ft | 416 kts | 265° |
| 2026-05-04 18:55 | 47.14108 | 16.28261 | 37999 ft | 416 kts | 265° |
| 2026-05-04 18:55 | 47.13247 | 16.15523 | 38001 ft | 416 kts | 265° |
| 2026-05-04 18:56 | 47.12671 | 16.07065 | 38001 ft | 416 kts | 265° |
| 2026-05-04 18:56 | 47.12091 | 15.98655 | 38002 ft | 416 kts | 265° |
| 2026-05-04 18:57 | 47.11500 | 15.90203 | 38005 ft | 416 kts | 265° |
| 2026-05-04 18:57 | 47.10900 | 15.81700 | 37996 ft | 416 kts | 264° |
| 2026-05-04 18:58 | 47.10303 | 15.73263 | 37992 ft | 416 kts | 264° |
| 2026-05-04 18:58 | 47.09701 | 15.64871 | 37990 ft | 416 kts | 264° |
| 2026-05-04 18:59 | 47.09084 | 15.56412 | 37989 ft | 417 kts | 264° |
| 2026-05-04 18:59 | 47.08459 | 15.47963 | 37989 ft | 417 kts | 264° |
| 2026-05-04 19:00 | 47.07833 | 15.39502 | 37988 ft | 417 kts | 264° |
| 2026-05-04 19:00 | 47.07195 | 15.31046 | 37996 ft | 417 kts | 264° |
| 2026-05-04 19:01 | 47.06551 | 15.22590 | 38000 ft | 417 kts | 264° |
| 2026-05-04 19:01 | 47.05909 | 15.14134 | 38003 ft | 417 kts | 264° |
| 2026-05-04 19:02 | 47.05254 | 15.05684 | 38014 ft | 417 kts | 264° |
| 2026-05-04 19:02 | 47.04708 | 14.98656 | 38025 ft | 417 kts | 264° |
| 2026-05-04 19:03 | 47.04043 | 14.90208 | 38040 ft | 418 kts | 264° |
| 2026-05-04 19:03 | 47.03372 | 14.81757 | 38031 ft | 418 kts | 263° |
| 2026-05-04 19:04 | 47.02690 | 14.73303 | 38037 ft | 418 kts | 263° |
| 2026-05-04 19:04 | 47.02007 | 14.64851 | 38039 ft | 417 kts | 263° |
| 2026-05-04 19:05 | 47.01319 | 14.56404 | 38040 ft | 417 kts | 263° |
| 2026-05-04 19:05 | 47.00628 | 14.47960 | 38047 ft | 417 kts | 263° |
| 2026-05-04 19:06 | 46.99930 | 14.39532 | 38047 ft | 417 kts | 263° |
| 2026-05-04 19:06 | 46.99222 | 14.31119 | 38045 ft | 416 kts | 263° |
| 2026-05-04 19:07 | 46.98506 | 14.22703 | 38052 ft | 416 kts | 263° |
| 2026-05-04 19:07 | 46.97785 | 14.14285 | 38052 ft | 416 kts | 263° |
| 2026-05-04 19:08 | 46.97060 | 14.05879 | 38049 ft | 416 kts | 263° |
| 2026-05-04 19:08 | 46.96333 | 13.97476 | 38058 ft | 416 kts | 262° |
| 2026-05-04 19:09 | 46.95597 | 13.89078 | 38055 ft | 416 kts | 262° |
| 2026-05-04 19:09 | 46.94851 | 13.80681 | 38052 ft | 416 kts | 262° |
| 2026-05-04 19:10 | 46.94104 | 13.72277 | 38053 ft | 416 kts | 262° |
| 2026-05-04 19:10 | 46.93350 | 13.63877 | 38064 ft | 417 kts | 262° |
| 2026-05-04 19:11 | 46.92587 | 13.55481 | 38075 ft | 416 kts | 262° |
| 2026-05-04 19:11 | 46.91819 | 13.47092 | 38080 ft | 416 kts | 262° |
| 2026-05-04 19:12 | 46.90663 | 13.34530 | 38078 ft | 416 kts | 262° |
| 2026-05-04 19:13 | 46.89880 | 13.26156 | 38078 ft | 416 kts | 262° |
| 2026-05-04 19:13 | 46.89093 | 13.17785 | 38071 ft | 416 kts | 262° |
| 2026-05-04 19:14 | 46.88304 | 13.09417 | 38075 ft | 415 kts | 262° |
| 2026-05-04 19:14 | 46.87505 | 13.01068 | 38060 ft | 411 kts | 262° |
| 2026-05-04 19:14 | 46.87108 | 12.96969 | 37741 ft | 405 kts | 261° |
| 2026-05-04 19:15 | 46.86712 | 12.92905 | 37260 ft | 404 kts | 261° |
| 2026-05-04 19:15 | 46.86316 | 12.88847 | 36739 ft | 403 kts | 261° |
| 2026-05-04 19:15 | 46.85919 | 12.84790 | 36176 ft | 404 kts | 261° |
| 2026-05-04 19:15 | 46.85522 | 12.80727 | 35599 ft | 405 kts | 261° |
| 2026-05-04 19:16 | 46.85125 | 12.76658 | 35165 ft | 404 kts | 261° |
| 2026-05-04 19:16 | 46.84726 | 12.72597 | 35052 ft | 405 kts | 261° |
| 2026-05-04 19:16 | 46.84325 | 12.68517 | 35075 ft | 407 kts | 261° |
| 2026-05-04 19:17 | 46.83511 | 12.60317 | 35087 ft | 408 kts | 261° |
| 2026-05-04 19:17 | 46.82685 | 12.52122 | 35101 ft | 408 kts | 261° |
| 2026-05-04 19:18 | 46.81865 | 12.43927 | 35114 ft | 408 kts | 261° |
| 2026-05-04 19:18 | 46.81039 | 12.35734 | 35133 ft | 408 kts | 261° |
| 2026-05-04 19:19 | 46.79918 | 12.27638 | 35151 ft | 407 kts | 250° |
| 2026-05-04 19:19 | 46.77499 | 12.20198 | 35150 ft | 406 kts | 243° |
| 2026-05-04 19:20 | 46.74955 | 12.12911 | 35064 ft | 406 kts | 243° |
| 2026-05-04 19:20 | 46.72380 | 12.05527 | 35058 ft | 406 kts | 243° |
| 2026-05-04 19:21 | 46.69815 | 11.98198 | 35064 ft | 406 kts | 243° |
| 2026-05-04 19:21 | 46.67262 | 11.90936 | 35072 ft | 405 kts | 243° |
| 2026-05-04 19:22 | 46.64692 | 11.83645 | 35076 ft | 405 kts | 243° |
| 2026-05-04 19:22 | 46.62121 | 11.76350 | 35075 ft | 405 kts | 243° |
| 2026-05-04 19:23 | 46.59547 | 11.69067 | 35073 ft | 405 kts | 243° |
| 2026-05-04 19:23 | 46.56966 | 11.61794 | 35059 ft | 405 kts | 243° |
| 2026-05-04 19:24 | 46.54378 | 11.54532 | 35068 ft | 405 kts | 243° |
| 2026-05-04 19:24 | 46.51787 | 11.47277 | 35052 ft | 405 kts | 243° |
| 2026-05-04 19:25 | 46.49192 | 11.40035 | 35044 ft | 404 kts | 243° |
| 2026-05-04 19:25 | 46.46592 | 11.32805 | 35057 ft | 404 kts | 242° |
| 2026-05-04 19:26 | 46.44045 | 11.25530 | 35052 ft | 404 kts | 243° |
| 2026-05-04 19:26 | 46.41562 | 11.18224 | 35155 ft | 404 kts | 244° |
| 2026-05-04 19:27 | 46.39071 | 11.10942 | 35207 ft | 403 kts | 243° |
| 2026-05-04 19:27 | 46.36563 | 11.03672 | 35209 ft | 403 kts | 243° |
| 2026-05-04 19:28 | 46.34057 | 10.96430 | 35205 ft | 402 kts | 243° |
| 2026-05-04 19:28 | 46.31544 | 10.89196 | 35204 ft | 403 kts | 243° |
| 2026-05-04 19:29 | 46.29026 | 10.81970 | 35213 ft | 402 kts | 243° |
| 2026-05-04 19:29 | 46.26512 | 10.74741 | 35204 ft | 402 kts | 243° |
| 2026-05-04 19:30 | 46.23998 | 10.67520 | 35201 ft | 402 kts | 243° |
| 2026-05-04 19:30 | 46.21474 | 10.60304 | 35198 ft | 402 kts | 243° |
| 2026-05-04 19:31 | 46.18956 | 10.53102 | 35183 ft | 401 kts | 243° |
| 2026-05-04 19:31 | 46.16435 | 10.45913 | 35178 ft | 401 kts | 243° |
| 2026-05-04 19:32 | 46.13908 | 10.38734 | 35177 ft | 402 kts | 243° |
| 2026-05-04 19:32 | 46.11371 | 10.31566 | 35169 ft | 401 kts | 243° |
| 2026-05-04 19:33 | 46.08833 | 10.24405 | 35156 ft | 401 kts | 243° |
| 2026-05-04 19:33 | 46.06293 | 10.17268 | 35140 ft | 401 kts | 243° |
| 2026-05-04 19:34 | 46.03746 | 10.10131 | 35133 ft | 401 kts | 243° |
| 2026-05-04 19:34 | 46.01213 | 10.02995 | 35131 ft | 401 kts | 243° |
| 2026-05-04 19:35 | 45.98674 | 9.95861 | 35117 ft | 400 kts | 243° |
| 2026-05-04 19:35 | 45.96130 | 9.88744 | 35119 ft | 400 kts | 243° |
| 2026-05-04 19:36 | 45.93581 | 9.81640 | 35093 ft | 400 kts | 243° |
| 2026-05-04 19:36 | 45.91027 | 9.74547 | 35087 ft | 400 kts | 243° |
| 2026-05-04 19:37 | 45.88464 | 9.67465 | 35087 ft | 400 kts | 243° |
| 2026-05-04 19:37 | 45.85908 | 9.60384 | 35076 ft | 400 kts | 243° |
| 2026-05-04 19:38 | 45.83357 | 9.53309 | 35071 ft | 399 kts | 243° |
| 2026-05-04 19:38 | 45.80790 | 9.46252 | 35073 ft | 399 kts | 242° |
| 2026-05-04 19:39 | 45.78214 | 9.39213 | 35068 ft | 398 kts | 243° |
| 2026-05-04 19:39 | 45.75647 | 9.32191 | 35073 ft | 397 kts | 242° |
| 2026-05-04 19:40 | 45.73081 | 9.25196 | 35070 ft | 397 kts | 242° |
| 2026-05-04 19:40 | 45.70513 | 9.18208 | 35067 ft | 397 kts | 242° |
| 2026-05-04 19:41 | 45.67943 | 9.11228 | 35079 ft | 396 kts | 242° |
| 2026-05-04 19:41 | 45.65464 | 9.04187 | 34857 ft | 397 kts | 249° |
| 2026-05-04 19:41 | 45.64711 | 9.00412 | 34399 ft | 395 kts | 258° |
| 2026-05-04 19:42 | 45.64440 | 8.96508 | 33869 ft | 396 kts | 266° |
| 2026-05-04 19:42 | 45.64361 | 8.92594 | 33362 ft | 392 kts | 266° |
| 2026-05-04 19:42 | 45.64267 | 8.88715 | 32873 ft | 389 kts | 265° |
| 2026-05-04 19:42 | 45.64158 | 8.84867 | 32387 ft | 386 kts | 265° |
| 2026-05-04 19:43 | 45.64045 | 8.81048 | 31903 ft | 383 kts | 265° |
| 2026-05-04 19:43 | 45.63933 | 8.77252 | 31426 ft | 381 kts | 265° |
| 2026-05-04 19:43 | 45.63825 | 8.73479 | 30959 ft | 379 kts | 265° |
| 2026-05-04 19:43 | 45.63716 | 8.69724 | 30495 ft | 377 kts | 265° |
| 2026-05-04 19:44 | 45.63607 | 8.65987 | 30030 ft | 376 kts | 265° |
| 2026-05-04 19:44 | 45.63497 | 8.62271 | 29565 ft | 373 kts | 265° |
| 2026-05-04 19:44 | 45.63386 | 8.58587 | 29125 ft | 370 kts | 264° |
| 2026-05-04 19:44 | 45.63312 | 8.56166 | 28839 ft | 368 kts | 264° |
| 2026-05-04 19:45 | 45.63200 | 8.52527 | 28418 ft | 365 kts | 264° |
| 2026-05-04 19:45 | 45.63085 | 8.48916 | 28019 ft | 362 kts | 264° |
| 2026-05-04 19:45 | 45.62704 | 8.45396 | 27596 ft | 355 kts | 251° |
| 2026-05-04 19:45 | 45.61753 | 8.42180 | 27206 ft | 349 kts | 238° |
| 2026-05-04 19:46 | 45.60308 | 8.39429 | 26802 ft | 345 kts | 225° |
| 2026-05-04 19:46 | 45.58466 | 8.37272 | 26403 ft | 342 kts | 212° |
| 2026-05-04 19:46 | 45.56392 | 8.35611 | 25997 ft | 343 kts | 209° |
| 2026-05-04 19:46 | 45.54295 | 8.33973 | 25586 ft | 344 kts | 209° |
| 2026-05-04 19:47 | 45.52203 | 8.32338 | 25158 ft | 342 kts | 209° |
| 2026-05-04 19:47 | 45.50122 | 8.30709 | 24731 ft | 340 kts | 209° |
| 2026-05-04 19:47 | 45.48051 | 8.29089 | 24306 ft | 339 kts | 209° |
| 2026-05-04 19:47 | 45.45984 | 8.27473 | 23869 ft | 338 kts | 209° |
| 2026-05-04 19:48 | 45.43923 | 8.25861 | 23387 ft | 338 kts | 209° |
| 2026-05-04 19:48 | 45.41871 | 8.24257 | 22938 ft | 335 kts | 209° |
| 2026-05-04 19:48 | 45.39833 | 8.22667 | 22512 ft | 333 kts | 209° |
| 2026-05-04 19:48 | 45.37809 | 8.21091 | 22068 ft | 331 kts | 209° |
| 2026-05-04 19:49 | 45.35797 | 8.19525 | 21632 ft | 328 kts | 209° |
| 2026-05-04 19:49 | 45.33799 | 8.17970 | 21193 ft | 327 kts | 209° |
| 2026-05-04 19:49 | 45.31856 | 8.16295 | 20527 ft | 330 kts | 218° |
| 2026-05-04 19:49 | 45.30076 | 8.14325 | 19989 ft | 319 kts | 218° |
| 2026-05-04 19:50 | 45.28349 | 8.12397 | 19378 ft | 313 kts | 218° |
| 2026-05-04 19:50 | 45.26655 | 8.10501 | 18747 ft | 308 kts | 218° |
| 2026-05-04 19:50 | 45.24983 | 8.08625 | 18066 ft | 304 kts | 218° |
| 2026-05-04 19:50 | 45.23336 | 8.06781 | 17344 ft | 300 kts | 218° |
| 2026-05-04 19:51 | 45.21704 | 8.04958 | 16667 ft | 297 kts | 218° |
| 2026-05-04 19:51 | 45.20090 | 8.03158 | 15994 ft | 294 kts | 218° |
| 2026-05-04 19:51 | 45.18490 | 8.01377 | 15358 ft | 290 kts | 218° |
| 2026-05-04 19:51 | 45.16910 | 7.99621 | 14757 ft | 287 kts | 218° |
| 2026-05-04 19:52 | 45.15337 | 7.97877 | 14345 ft | 288 kts | 218° |
| 2026-05-04 19:52 | 45.13758 | 7.96128 | 13967 ft | 288 kts | 218° |
| 2026-05-04 19:52 | 45.12182 | 7.94382 | 13578 ft | 287 kts | 217° |
| 2026-05-04 19:52 | 45.10615 | 7.92645 | 13208 ft | 285 kts | 217° |
| 2026-05-04 19:53 | 45.09048 | 7.90907 | 12636 ft | 290 kts | 217° |
| 2026-05-04 19:53 | 45.07444 | 7.89128 | 12050 ft | 294 kts | 217° |
| 2026-05-04 19:53 | 45.05846 | 7.87357 | 11418 ft | 289 kts | 217° |
| 2026-05-04 19:53 | 45.04279 | 7.85624 | 10803 ft | 284 kts | 217° |
| 2026-05-04 19:54 | 45.02728 | 7.83912 | 10205 ft | 281 kts | 216° |
| 2026-05-04 19:54 | 45.01196 | 7.82222 | 9553 ft | 278 kts | 216° |
| 2026-05-04 19:54 | 44.99678 | 7.80550 | 8901 ft | 275 kts | 216° |
| 2026-05-04 19:54 | 44.98188 | 7.78936 | 8265 ft | 272 kts | 212° |
| 2026-05-04 19:55 | 44.96497 | 7.77810 | 7640 ft | 268 kts | 194° |
| 2026-05-04 19:55 | 44.94665 | 7.77450 | 7024 ft | 265 kts | 181° |
| 2026-05-04 19:55 | 44.92829 | 7.77336 | 6404 ft | 264 kts | 181° |
| 2026-05-04 19:55 | 44.90996 | 7.77221 | 5761 ft | 263 kts | 181° |
| 2026-05-04 19:56 | 44.89203 | 7.76753 | 5124 ft | 263 kts | 202° |
| 2026-05-04 19:56 | 44.87734 | 7.75320 | 4808 ft | 253 kts | 226° |
| 2026-05-04 19:56 | 44.86837 | 7.73281 | 4557 ft | 241 kts | 250° |
| 2026-05-04 19:56 | 44.86588 | 7.70971 | 4298 ft | 239 kts | 273° |
| 2026-05-04 19:57 | 44.86987 | 7.68745 | 4108 ft | 232 kts | 297° |
| 2026-05-04 19:57 | 44.87912 | 7.66967 | 4015 ft | 220 kts | 319° |
| 2026-05-04 19:57 | 44.89151 | 7.65833 | 4016 ft | 210 kts | 339° |
| 2026-05-04 19:57 | 44.90552 | 7.65326 | 4019 ft | 208 kts | 351° |
| 2026-05-04 19:58 | 44.91976 | 7.64962 | 4019 ft | 208 kts | 351° |
| 2026-05-04 19:58 | 44.93399 | 7.64595 | 4019 ft | 208 kts | 351° |
| 2026-05-04 19:58 | 44.94820 | 7.64226 | 4025 ft | 207 kts | 352° |
| 2026-05-04 19:58 | 44.96227 | 7.63865 | 3970 ft | 204 kts | 348° |
| 2026-05-04 19:59 | 44.97634 | 7.63649 | 4014 ft | 204 kts | 355° |
| 2026-05-04 19:59 | 44.99045 | 7.63651 | 4012 ft | 202 kts | 359° |
| 2026-05-04 19:59 | 45.00451 | 7.63724 | 4026 ft | 202 kts | 0° |
| 2026-05-04 19:59 | 45.01857 | 7.63810 | 4027 ft | 203 kts | 0° |
| 2026-05-04 20:00 | 45.03286 | 7.63900 | 3942 ft | 202 kts | 0° |
| 2026-05-04 20:00 | 45.04695 | 7.63988 | 3732 ft | 202 kts | 1° |
| 2026-05-04 20:00 | 45.06101 | 7.64077 | 3494 ft | 202 kts | 2° |
| 2026-05-04 20:00 | 45.07493 | 7.64166 | 3252 ft | 197 kts | 3° |
| 2026-05-04 20:01 | 45.08832 | 7.64250 | 2974 ft | 189 kts | 3° |
| 2026-05-04 20:01 | 45.10112 | 7.64331 | 2733 ft | 178 kts | 2° |
| 2026-05-04 20:01 | 45.11273 | 7.64405 | 2511 ft | 157 kts | 2° |
| 2026-05-04 20:01 | 45.12308 | 7.64470 | 2293 ft | 143 kts | 3° |
| 2026-05-04 20:02 | 45.13276 | 7.64531 | 2114 ft | 136 kts | 2° |
| 2026-05-04 20:02 | 45.14216 | 7.64591 | 1913 ft | 134 kts | 2° |
| 2026-05-04 20:02 | 45.15144 | 7.64650 | 1729 ft | 133 kts | 1° |
| 2026-05-04 20:02 | 45.16061 | 7.64710 | 1564 ft | 131 kts | 359° |
| 2026-05-04 20:03 | 45.16964 | 7.64768 | 1380 ft | 130 kts | 359° |
| 2026-05-04 20:03 | 45.17864 | 7.64833 | 1172 ft | 131 kts | 358° |
| 2026-05-04 20:03 | 45.18764 | 7.64888 | 1034 ft | 129 kts | 357° |
| 2026-05-04 20:03 | 45.19623 | 7.64926 | 965 ft | 109 kts | 1° |
| 2026-05-04 20:04 | 45.20211 | 7.64969 | 981 ft | 60 kts | 3° |
| 2026-05-04 20:04 | 45.20492 | 7.64987 | 991 ft | 28 kts | 2° |
| 2026-05-04 20:04 | 45.20643 | 7.64996 | 995 ft | 19 kts | 4° |
| 2026-05-04 20:04 | 45.20785 | 7.65008 | 994 ft | 21 kts | 2° |
| 2026-05-04 20:05 | 45.20874 | 7.64898 | 996 ft | 13 kts | 290° |
| 2026-05-04 20:05 | 45.20873 | 7.64778 | 998 ft | 13 kts | 231° |
| 2026-05-04 20:05 | 45.20787 | 7.64740 | 995 ft | 13 kts | 188° |
| 2026-05-04 20:05 | 45.20695 | 7.64739 | 998 ft | 14 kts | 180° |
| 2026-05-04 20:06 | 45.20593 | 7.64731 | 993 ft | 16 kts | 185° |
| 2026-05-04 20:06 | 45.20471 | 7.64720 | 990 ft | 19 kts | 181° |
| 2026-05-04 20:06 | 45.20334 | 7.64714 | 990 ft | 21 kts | 182° |
| 2026-05-04 20:06 | 45.20195 | 7.64704 | 978 ft | 20 kts | 182° |
| 2026-05-04 20:07 | 45.20061 | 7.64696 | 980 ft | 19 kts | 181° |
| 2026-05-04 20:07 | 45.19918 | 7.64687 | 969 ft | 23 kts | 183° |
| 2026-05-04 20:07 | 45.19773 | 7.64690 | 966 ft | 20 kts | 169° |
| 2026-05-04 20:07 | 45.19640 | 7.64693 | 965 ft | 19 kts | 182° |
| 2026-05-04 20:08 | 45.19504 | 7.64686 | 963 ft | 19 kts | 182° |
| 2026-05-04 20:08 | 45.19390 | 7.64678 | 966 ft | 12 kts | 182° |
| 2026-05-04 20:08 | 45.19331 | 7.64674 | 966 ft | 8 kts | 183° |
| 2026-05-04 20:08 | 45.19292 | 7.64645 | 962 ft | 7 kts | 242° |
| 2026-05-04 20:09 | 45.19280 | 7.64572 | 963 ft | 8 kts | 258° |
| 2026-05-04 20:09 | 45.19272 | 7.64525 | 958 ft | 3 kts | 257° |
| 2026-05-04 20:09 | 45.19271 | 7.64518 | 959 ft | 0 kts | 257° |